Naval Base, Virginia
Current Conditions -  °F | °C
As of 4:59 AM on Sunday 26 Oct 2014 (Local Time) from KNGU Reporting Station
Clear Clear  
Wind Chill: 61°   Ceiling: Unl
Heat Index: 61°   Visibility: 10mi
Dew Point: 50°   Wind: 7mph
Humidity: 67%   Direction: 260°W
Pressure: 29.73"   Gusts: NA
Location:  36.9343°N, 76.284°W
Report Text: KNGU 260859Z 26006KT 10SM CLR 16/10 A2973 RMK AO2 SLP068 T01610100 56008 $
Loading
Personal Weather Stations






























Interactive Weather Map
Tropical Storm Tracking
New forecast layout! Learn more

10-Day Weather Forecast

Advertisements
Track Severe Weather on mobile